createdAt,value
2018-09-24T00:01:53.000Z,101201
2018-09-24T00:03:53.000Z,101199
2018-09-24T00:05:38.000Z,101210
2018-09-24T00:06:53.000Z,101209
2018-09-24T00:07:53.000Z,101212
2018-09-24T00:09:53.000Z,101221
2018-09-24T00:11:53.000Z,101218
2018-09-24T00:13:53.000Z,101220
2018-09-24T00:15:53.000Z,101218
2018-09-24T00:17:38.000Z,101228
2018-09-24T00:18:53.000Z,101233
2018-09-24T00:19:53.000Z,101228
2018-09-24T00:21:53.000Z,101230
2018-09-24T00:23:53.000Z,101237
2018-09-24T00:24:53.000Z,101235
2018-09-24T00:26:53.000Z,101240
2018-09-24T00:28:53.000Z,101239
2018-09-24T00:30:53.000Z,101239
2018-09-24T00:32:53.000Z,101242
2018-09-24T00:33:53.000Z,101242
2018-09-24T00:35:53.000Z,101244
2018-09-24T00:36:53.000Z,101249
2018-09-24T00:38:53.000Z,101250
2018-09-24T00:40:53.000Z,101252
2018-09-24T00:41:53.000Z,101258
2018-09-24T00:42:53.000Z,101264
2018-09-24T00:44:53.000Z,101267
2018-09-24T00:45:53.000Z,101270
2018-09-24T00:46:53.000Z,101270
2018-09-24T00:47:53.000Z,101273
2018-09-24T00:49:53.000Z,101279
2018-09-24T00:51:53.000Z,101282
2018-09-24T00:53:38.000Z,101283
2018-09-24T00:54:53.000Z,101284
2018-09-24T00:55:53.000Z,101290
2018-09-24T00:57:53.000Z,101292
2018-09-24T00:58:53.000Z,101291
2018-09-24T00:59:53.000Z,101296
2018-09-24T01:01:53.000Z,101297
2018-09-24T01:03:53.000Z,101296
2018-09-24T01:05:53.000Z,101298
2018-09-24T01:07:38.000Z,101299
2018-09-24T01:08:53.000Z,101298
2018-09-24T01:10:53.000Z,101298
2018-09-24T01:11:53.000Z,101298
2018-09-24T01:13:53.000Z,101304
2018-09-24T01:15:53.000Z,101311
2018-09-24T01:17:53.000Z,101321
2018-09-24T01:18:53.000Z,101323
2018-09-24T01:20:53.000Z,101325
2018-09-24T01:22:53.000Z,101335
2018-09-24T01:24:38.000Z,101335
2018-09-24T01:25:53.000Z,101346
2018-09-24T01:26:53.000Z,101343
2018-09-24T01:28:53.000Z,101351
2018-09-24T01:29:53.000Z,101353
2018-09-24T01:31:38.000Z,101357
2018-09-24T01:32:53.000Z,101357
2018-09-24T01:34:38.000Z,101361
2018-09-24T01:35:53.000Z,101358
2018-09-24T01:36:53.000Z,101360
2018-09-24T01:37:53.000Z,101362
2018-09-24T01:38:53.000Z,101359
2018-09-24T01:40:38.000Z,101363
2018-09-24T01:41:53.000Z,101367
2018-09-24T01:43:53.000Z,101371
2018-09-24T01:45:53.000Z,101369
2018-09-24T01:47:53.000Z,101374
2018-09-24T01:49:53.000Z,101385
2018-09-24T01:50:53.000Z,101383
2018-09-24T01:51:53.000Z,101386
2018-09-24T01:53:53.000Z,101388
2018-09-24T01:55:53.000Z,101383
2018-09-24T01:57:37.000Z,101385
2018-09-24T01:58:53.000Z,101389
2018-09-24T02:00:37.000Z,101392
2018-09-24T02:01:53.000Z,101401
2018-09-24T02:02:53.000Z,101403
2018-09-24T02:04:53.000Z,101402
2018-09-24T02:05:53.000Z,101402
2018-09-24T02:07:53.000Z,101411
2018-09-24T02:09:53.000Z,101415
2018-09-24T02:10:53.000Z,101420
2018-09-24T02:12:53.000Z,101414
2018-09-24T02:14:53.000Z,101414
2018-09-24T02:16:53.000Z,101421
2018-09-24T02:18:53.000Z,101425
2018-09-24T02:20:53.000Z,101427
2018-09-24T02:21:53.000Z,101426
2018-09-24T02:23:37.000Z,101431
2018-09-24T02:24:53.000Z,101421
2018-09-24T02:26:37.000Z,101433
2018-09-24T02:27:53.000Z,101442
2018-09-24T02:29:53.000Z,101436
2018-09-24T02:31:53.000Z,101440
2018-09-24T02:32:53.000Z,101449
2018-09-24T02:34:53.000Z,101442
2018-09-24T02:36:53.000Z,101445
2018-09-24T02:38:53.000Z,101450
2018-09-24T02:40:53.000Z,101450
2018-09-24T02:42:53.000Z,101452
2018-09-24T02:44:53.000Z,101452
2018-09-24T02:46:22.000Z,101453
2018-09-24T02:47:53.000Z,101458
2018-09-24T02:48:53.000Z,101458
2018-09-24T02:50:53.000Z,101470
2018-09-24T02:52:53.000Z,101474
2018-09-24T02:53:53.000Z,101478
2018-09-24T02:54:53.000Z,101481
2018-09-24T02:56:53.000Z,101477
2018-09-24T02:58:37.000Z,101478
2018-09-24T02:59:53.000Z,101477
2018-09-24T03:00:53.000Z,101477
2018-09-24T03:02:53.000Z,101475
2018-09-24T03:04:53.000Z,101486
2018-09-24T03:06:53.000Z,101489
2018-09-24T03:07:53.000Z,101492
2018-09-24T03:09:53.000Z,101487
2018-09-24T03:10:53.000Z,101489
2018-09-24T03:12:53.000Z,101488
2018-09-24T03:14:38.000Z,101490
2018-09-24T03:15:53.000Z,101503
2018-09-24T03:16:53.000Z,101504
2018-09-24T03:18:53.000Z,101502
2018-09-24T03:20:53.000Z,101504
2018-09-24T03:21:53.000Z,101505
2018-09-24T03:23:38.000Z,101513
2018-09-24T03:24:53.000Z,101511
2018-09-24T03:25:53.000Z,101506
2018-09-24T03:27:53.000Z,101506
2018-09-24T03:29:53.000Z,101505
2018-09-24T03:30:53.000Z,101511
2018-09-24T03:32:53.000Z,101516
2018-09-24T03:34:53.000Z,101511
2018-09-24T03:36:38.000Z,101521
2018-09-24T03:37:53.000Z,101524
2018-09-24T03:39:53.000Z,101527
2018-09-24T03:41:53.000Z,101531
2018-09-24T03:43:53.000Z,101528
2018-09-24T03:44:53.000Z,101523
2018-09-24T03:46:53.000Z,101524
2018-09-24T03:47:53.000Z,101524
2018-09-24T03:49:53.000Z,101528
2018-09-24T03:50:53.000Z,101527
2018-09-24T03:52:53.000Z,101532
2018-09-24T03:54:53.000Z,101535
2018-09-24T03:55:53.000Z,101537
2018-09-24T03:57:53.000Z,101540
2018-09-24T03:59:53.000Z,101540
2018-09-24T04:01:53.000Z,101542
2018-09-24T04:02:56.000Z,101545
2018-09-24T04:04:52.000Z,101550
2018-09-24T04:06:52.000Z,101544
2018-09-24T04:08:52.000Z,101552
2018-09-24T04:10:52.000Z,101550
2018-09-24T04:12:52.000Z,101552
2018-09-24T04:44:51.000Z,101606
2018-09-24T04:46:37.000Z,101605
2018-09-24T04:48:37.000Z,101610
2018-09-24T04:50:37.000Z,101617
2018-09-24T04:51:37.000Z,101617
2018-09-24T04:52:37.000Z,101619
2018-09-24T04:54:21.000Z,101623
2018-09-24T04:55:37.000Z,101616
2018-09-24T04:56:37.000Z,101621
2018-09-24T04:58:37.000Z,101614
2018-09-24T05:00:06.000Z,101616
2018-09-24T05:01:37.000Z,101622
2018-09-24T05:03:37.000Z,101630
2018-09-24T05:05:23.000Z,101631
2018-09-24T05:07:38.000Z,101630
2018-09-24T05:08:38.000Z,101633
2018-09-24T05:10:38.000Z,101631
2018-09-24T05:12:23.000Z,101633
2018-09-24T05:13:38.000Z,101638
2018-09-24T05:14:38.000Z,101643
2018-09-24T05:16:38.000Z,101637
2018-09-24T05:18:38.000Z,101645
2018-09-24T05:20:38.000Z,101652
2018-09-24T05:21:38.000Z,101656
2018-09-24T05:23:08.000Z,101655
2018-09-24T05:24:38.000Z,101661
2018-09-24T05:26:38.000Z,101651
2018-09-24T05:27:38.000Z,101663
2018-09-24T05:28:38.000Z,101658
2018-09-24T05:30:38.000Z,101655
2018-09-24T05:32:38.000Z,101657
2018-09-24T05:34:38.000Z,101659
2018-09-24T05:36:38.000Z,101657
2018-09-24T05:37:38.000Z,101663
2018-09-24T05:39:38.000Z,101653
2018-09-24T05:41:38.000Z,101658
2018-09-24T05:43:23.000Z,101658
2018-09-24T05:44:38.000Z,101659
2018-09-24T05:45:38.000Z,101663
2018-09-24T05:47:38.000Z,101669
2018-09-24T05:49:38.000Z,101669
2018-09-24T05:50:38.000Z,101677
2018-09-24T05:52:38.000Z,101674
2018-09-24T05:53:38.000Z,101670
2018-09-24T05:55:38.000Z,101683
2018-09-24T05:57:38.000Z,101685
2018-09-24T05:58:38.000Z,101688
2018-09-24T05:59:38.000Z,101689
2018-09-24T06:01:23.000Z,101693
2018-09-24T06:02:38.000Z,101697
2018-09-24T06:04:38.000Z,101702
2018-09-24T06:06:23.000Z,101700
2018-09-24T06:07:38.000Z,101705
2018-09-24T06:08:38.000Z,101713
2018-09-24T06:10:38.000Z,101711
2018-09-24T06:12:38.000Z,101712
2018-09-24T06:13:38.000Z,101715
2018-09-24T06:15:38.000Z,101719
2018-09-24T06:17:38.000Z,101718
2018-09-24T06:19:38.000Z,101725
2018-09-24T06:21:38.000Z,101724
2018-09-24T06:23:38.000Z,101736
2018-09-24T06:25:38.000Z,101737
2018-09-24T06:26:38.000Z,101735
2018-09-24T06:28:23.000Z,101747
2018-09-24T06:29:38.000Z,101750
2018-09-24T06:30:38.000Z,101745
2018-09-24T06:32:38.000Z,101746
2018-09-24T06:34:38.000Z,101755
2018-09-24T06:36:38.000Z,101758
2018-09-24T06:37:38.000Z,101756
2018-09-24T06:38:38.000Z,101755
2018-09-24T06:40:38.000Z,101762
2018-09-24T06:42:38.000Z,101764
2018-09-24T06:43:38.000Z,101759
2018-09-24T06:45:38.000Z,101763
2018-09-24T06:46:38.000Z,101768
2018-09-24T06:48:38.000Z,101768
2018-09-24T06:50:23.000Z,101768
2018-09-24T06:51:38.000Z,101771
2018-09-24T06:53:38.000Z,101779
2018-09-24T06:55:23.000Z,101781
2018-09-24T06:56:38.000Z,101782
2018-09-24T06:58:08.000Z,101785
2018-09-24T06:59:38.000Z,101784
2018-09-24T07:01:23.000Z,101790
2018-09-24T07:02:38.000Z,101790
2018-09-24T07:04:38.000Z,101794
2018-09-24T07:05:38.000Z,101795
2018-09-24T07:07:38.000Z,101796
2018-09-24T07:08:38.000Z,101801
2018-09-24T07:10:38.000Z,101796
2018-09-24T07:11:38.000Z,101794
2018-09-24T07:13:08.000Z,101746
2018-09-24T07:14:39.000Z,101801
2018-09-24T07:16:39.000Z,101801
2018-09-24T07:18:39.000Z,101803
2018-09-24T07:19:39.000Z,101804
2018-09-24T07:21:39.000Z,101810
2018-09-24T07:23:39.000Z,101814
2018-09-24T07:24:39.000Z,101818
2018-09-24T07:25:39.000Z,101815
2018-09-24T07:26:39.000Z,101811
2018-09-24T07:28:39.000Z,101817
2018-09-24T07:30:39.000Z,101826
2018-09-24T07:32:39.000Z,101828
2018-09-24T07:34:23.000Z,101832
2018-09-24T07:35:39.000Z,101833
2018-09-24T07:36:39.000Z,101831
2018-09-24T07:38:39.000Z,101836
2018-09-24T07:40:39.000Z,101837
2018-09-24T07:42:39.000Z,101842
2018-09-24T07:44:39.000Z,101843
2018-09-24T07:46:39.000Z,101840
2018-09-24T07:48:39.000Z,101848
2018-09-24T07:50:39.000Z,101844
2018-09-24T07:52:39.000Z,101853
2018-09-24T07:54:39.000Z,101859
2018-09-24T07:56:39.000Z,101852
2018-09-24T07:58:39.000Z,101864
2018-09-24T07:59:39.000Z,101863
2018-09-24T08:01:39.000Z,101864
2018-09-24T08:02:39.000Z,101867
2018-09-24T08:04:39.000Z,101872
2018-09-24T08:06:23.000Z,101872
2018-09-24T08:07:39.000Z,101875
2018-09-24T08:09:39.000Z,101877
2018-09-24T08:11:39.000Z,101879
2018-09-24T08:13:39.000Z,101885
2018-09-24T08:15:38.000Z,101878
2018-09-24T08:17:38.000Z,101893
2018-09-24T08:54:26.000Z,101946
2018-09-24T08:56:12.000Z,101939
2018-09-24T08:58:12.000Z,101944
2018-09-24T09:00:12.000Z,101941
2018-09-24T09:02:12.000Z,101943
2018-09-24T09:03:12.000Z,101939
2018-09-24T09:05:12.000Z,101945
2018-09-24T09:06:12.000Z,101945
2018-09-24T09:07:57.000Z,101951
2018-09-24T09:09:12.000Z,101943
2018-09-24T09:10:57.000Z,101944
2018-09-24T09:12:12.000Z,101943
2018-09-24T09:13:12.000Z,101942
2018-09-24T09:15:12.000Z,101946
2018-09-24T09:17:12.000Z,101945
2018-09-24T09:19:13.000Z,101954
2018-09-24T09:21:13.000Z,101954
2018-09-24T09:22:13.000Z,101947
2018-09-24T09:23:13.000Z,101954
2018-09-24T09:25:13.000Z,101947
2018-09-24T09:27:13.000Z,101951
2018-09-24T09:29:13.000Z,101955
2018-09-24T09:31:13.000Z,101949
2018-09-24T09:33:13.000Z,101961
2018-09-24T09:34:13.000Z,101960
2018-09-24T09:36:13.000Z,101959
2018-09-24T09:37:13.000Z,101959
2018-09-24T09:39:13.000Z,101964
2018-09-24T09:40:13.000Z,101966
2018-09-24T09:41:13.000Z,101964
2018-09-24T09:43:13.000Z,101964
2018-09-24T09:45:13.000Z,101961
2018-09-24T09:47:13.000Z,101967
2018-09-24T09:48:42.000Z,101969
2018-09-24T09:50:13.000Z,101958
2018-09-24T09:51:13.000Z,101962
2018-09-24T09:53:13.000Z,101969
2018-09-24T09:55:13.000Z,101971
2018-09-24T09:56:13.000Z,101970
2018-09-24T09:58:13.000Z,101975
2018-09-24T10:00:13.000Z,101977
2018-09-24T10:02:13.000Z,101972
2018-09-24T10:03:42.000Z,101968
2018-09-24T10:05:13.000Z,101967
2018-09-24T10:06:13.000Z,101967
2018-09-24T10:08:13.000Z,101972
2018-09-24T10:10:13.000Z,101982
2018-09-24T10:12:13.000Z,101975
2018-09-24T10:13:13.000Z,101970
2018-09-24T10:15:13.000Z,101976
2018-09-24T10:17:13.000Z,101969
2018-09-24T10:19:13.000Z,101964
2018-09-24T10:21:13.000Z,101955
2018-09-24T10:22:42.000Z,101962
2018-09-24T10:24:12.000Z,101961
2018-09-24T10:25:12.000Z,101961
2018-09-24T10:26:12.000Z,101965
2018-09-24T10:28:12.000Z,101960
2018-09-24T10:29:12.000Z,101965
2018-09-24T10:30:57.000Z,101957
2018-09-24T10:32:12.000Z,101965
2018-09-24T10:34:12.000Z,101959
2018-09-24T10:36:12.000Z,101953
2018-09-24T10:38:12.000Z,101959
2018-09-24T10:40:12.000Z,101964
2018-09-24T10:42:12.000Z,101959
2018-09-24T10:44:12.000Z,101955
2018-09-24T10:45:12.000Z,101964
2018-09-24T10:46:57.000Z,101970
2018-09-24T10:48:12.000Z,101965
2018-09-24T10:49:12.000Z,101961
2018-09-24T10:50:12.000Z,101960
2018-09-24T10:52:12.000Z,101964
2018-09-24T10:54:12.000Z,101969
2018-09-24T10:55:12.000Z,101974
2018-09-24T10:57:12.000Z,101958
2018-09-24T10:58:12.000Z,101960
2018-09-24T10:59:57.000Z,101965
2018-09-24T11:01:12.000Z,101961
2018-09-24T11:03:12.000Z,101969
2018-09-24T11:04:57.000Z,101964
2018-09-24T11:06:12.000Z,101963
2018-09-24T11:08:12.000Z,101971
2018-09-24T11:10:12.000Z,101971
2018-09-24T11:12:12.000Z,101975
2018-09-24T11:14:12.000Z,101979
2018-09-24T11:16:12.000Z,101973
2018-09-24T11:17:57.000Z,101973
2018-09-24T11:19:12.000Z,101982
2018-09-24T11:20:57.000Z,101981
2018-09-24T11:22:12.000Z,101975
2018-09-24T11:24:12.000Z,101972
2018-09-24T11:28:13.000Z,101970
2018-09-24T11:30:13.000Z,101972
2018-09-24T11:32:13.000Z,101982
2018-09-24T11:34:13.000Z,101984
2018-09-24T11:36:13.000Z,101987
2018-09-24T11:37:58.000Z,101981
2018-09-24T11:39:13.000Z,101977
2018-09-24T11:41:13.000Z,101978
2018-09-24T11:42:13.000Z,101985
2018-09-24T11:44:13.000Z,101983
2018-09-24T11:45:13.000Z,101987
2018-09-24T11:46:13.000Z,101993
2018-09-24T11:48:13.000Z,101986
2018-09-24T11:49:57.000Z,101985
2018-09-24T11:51:13.000Z,101987
2018-09-24T11:52:57.000Z,101983
2018-09-24T11:54:13.000Z,101987
2018-09-24T11:55:42.000Z,101981
2018-09-24T11:57:13.000Z,101983
2018-09-24T11:59:13.000Z,101984
2018-09-24T12:01:13.000Z,101990
2018-09-24T12:02:57.000Z,101978
2018-09-24T12:03:57.000Z,101979
2018-09-24T12:05:13.000Z,101979
2018-09-24T12:06:57.000Z,101975
2018-09-24T12:08:13.000Z,101977
2018-09-24T12:10:13.000Z,101980
2018-09-24T12:12:13.000Z,101977
2018-09-24T12:14:13.000Z,101980
2018-09-24T12:15:57.000Z,101986
2018-09-24T12:17:13.000Z,101979
2018-09-24T12:19:13.000Z,101978
2018-09-24T12:21:13.000Z,101976
2018-09-24T12:22:13.000Z,101982
2018-09-24T12:23:13.000Z,101979
2018-09-24T12:24:57.000Z,101994
2018-09-24T12:26:13.000Z,102002
2018-09-24T12:27:13.000Z,101992
2018-09-24T12:28:13.000Z,102000
2018-09-24T12:29:12.000Z,101997
2018-09-24T12:31:12.000Z,102007
2018-09-24T12:33:12.000Z,102017
2018-09-24T12:35:12.000Z,102019
2018-09-24T12:37:12.000Z,102027
2018-09-24T12:39:12.000Z,102023
2018-09-24T12:41:12.000Z,102049
2018-09-24T12:43:12.000Z,102038
2018-09-24T12:44:12.000Z,102039
2018-09-24T12:46:12.000Z,102040
2018-09-24T12:48:12.000Z,102037
2018-09-24T12:50:12.000Z,102038
2018-09-24T12:52:12.000Z,102027
2018-09-24T12:53:57.000Z,102037
2018-09-24T12:55:12.000Z,102032
2018-09-24T12:56:12.000Z,102034
2018-09-24T12:57:57.000Z,102033
2018-09-24T12:59:12.000Z,102022
2018-09-24T13:01:12.000Z,102017
2018-09-24T13:02:12.000Z,102019
2018-09-24T13:03:57.000Z,102018
2018-09-24T13:05:12.000Z,102012
2018-09-24T13:06:12.000Z,102013
2018-09-24T13:08:12.000Z,102018
2018-09-24T13:09:12.000Z,102018
2018-09-24T13:11:12.000Z,102012
2018-09-24T13:13:12.000Z,102022
2018-09-24T13:15:12.000Z,102019
2018-09-24T13:16:12.000Z,102015
2018-09-24T13:18:12.000Z,102013
2018-09-24T13:20:12.000Z,102015
2018-09-24T13:22:12.000Z,102018
2018-09-24T13:23:12.000Z,102011
2018-09-24T13:24:12.000Z,102015
2018-09-24T13:26:12.000Z,102018
2018-09-24T13:27:12.000Z,102018
2018-09-24T13:29:12.000Z,102007
2018-09-24T13:31:12.000Z,102005
2018-09-24T13:33:13.000Z,102010
2018-09-24T13:34:13.000Z,102007
2018-09-24T13:36:12.000Z,102012
2018-09-24T13:38:12.000Z,102015
2018-09-24T13:40:13.000Z,102016
2018-09-24T13:42:13.000Z,102026
2018-09-24T13:44:13.000Z,102016
2018-09-24T13:46:13.000Z,102018
2018-09-24T13:47:42.000Z,102020
2018-09-24T13:49:12.000Z,102017
2018-09-24T13:50:13.000Z,102015
2018-09-24T13:51:58.000Z,102016
2018-09-24T13:54:12.000Z,102014
2018-09-24T13:56:13.000Z,102004
2018-09-24T13:58:13.000Z,102010
2018-09-24T13:59:13.000Z,102008
2018-09-24T14:00:13.000Z,102010
2018-09-24T14:02:12.000Z,102012
2018-09-24T14:03:13.000Z,102020
2018-09-24T14:05:13.000Z,102013
2018-09-24T14:06:13.000Z,102009
2018-09-24T14:08:13.000Z,102010
2018-09-24T14:09:58.000Z,102018
2018-09-24T14:11:13.000Z,102006
2018-09-24T14:13:13.000Z,102015
2018-09-24T14:15:13.000Z,102015
2018-09-24T14:17:13.000Z,102000
2018-09-24T14:19:13.000Z,102002
2018-09-24T14:21:13.000Z,102006
2018-09-24T14:23:13.000Z,102005
2018-09-24T14:25:13.000Z,102009
2018-09-24T14:26:57.000Z,102008
2018-09-24T14:28:13.000Z,102005
2018-09-24T14:29:13.000Z,102016
2018-09-24T14:30:42.000Z,102007
2018-09-24T14:32:13.000Z,102013
2018-09-24T14:34:13.000Z,102011
2018-09-24T14:36:13.000Z,102001
2018-09-24T14:37:12.000Z,102007
2018-09-24T14:38:12.000Z,102012
2018-09-24T14:40:12.000Z,102013
2018-09-24T14:41:57.000Z,102016
2018-09-24T14:43:12.000Z,102012
2018-09-24T14:45:12.000Z,102013
2018-09-24T14:47:12.000Z,102008
2018-09-24T14:49:12.000Z,102014
2018-09-24T14:50:57.000Z,102016
2018-09-24T14:52:12.000Z,102014
2018-09-24T14:54:12.000Z,102015
2018-09-24T14:55:13.000Z,102022
2018-09-24T16:12:13.000Z,102029
2018-09-24T16:14:09.000Z,102031
2018-09-24T16:15:09.000Z,102032
2018-09-24T16:17:09.000Z,102036
2018-09-24T16:18:09.000Z,102037
2018-09-24T16:19:54.000Z,102042
2018-09-24T16:21:09.000Z,102043
2018-09-24T16:23:09.000Z,102049
2018-09-24T16:25:09.000Z,102047
2018-09-24T16:27:09.000Z,102046
2018-09-24T16:28:09.000Z,102047
2018-09-24T16:29:09.000Z,102047
2018-09-24T16:31:09.000Z,102057
2018-09-24T16:33:09.000Z,102049
2018-09-24T16:35:09.000Z,102056
2018-09-24T16:37:09.000Z,102059
2018-09-24T16:38:09.000Z,102062
2018-09-24T16:39:54.000Z,102065
2018-09-24T16:41:09.000Z,102065
2018-09-24T16:43:09.000Z,102065
2018-09-24T16:45:09.000Z,102065
2018-09-24T16:46:54.000Z,102061
2018-09-24T16:48:09.000Z,102065
2018-09-24T16:49:09.000Z,102064
2018-09-24T16:51:09.000Z,102064
2018-09-24T16:53:09.000Z,102075
2018-09-24T16:54:54.000Z,102082
2018-09-24T16:56:09.000Z,102097
2018-09-24T16:57:09.000Z,102106
2018-09-24T16:59:09.000Z,102107
2018-09-24T17:01:09.000Z,102097
2018-09-24T17:05:18.000Z,102098
2018-09-24T17:07:04.000Z,102094
2018-09-24T17:08:49.000Z,102096
2018-09-24T17:10:04.000Z,102098
2018-09-24T17:12:04.000Z,102104
2018-09-24T17:14:04.000Z,102099
2018-09-24T17:15:49.000Z,102100
2018-09-24T17:17:04.000Z,102100
2018-09-24T17:18:34.000Z,102105
2018-09-24T17:20:04.000Z,102104
2018-09-24T17:21:04.000Z,102103
2018-09-24T17:22:04.000Z,102100
2018-09-24T17:23:04.000Z,102106
2018-09-24T17:25:04.000Z,102106
2018-09-24T17:26:04.000Z,102106
2018-09-24T17:28:04.000Z,102103
2018-09-24T17:30:04.000Z,102108
2018-09-24T17:32:04.000Z,102107
2018-09-24T17:34:04.000Z,102106
2018-09-24T17:36:04.000Z,102115
2018-09-24T17:37:04.000Z,102116
2018-09-24T17:39:04.000Z,102117
2018-09-24T17:40:04.000Z,102118
2018-09-24T17:42:04.000Z,102122
2018-09-24T17:43:04.000Z,102124
2018-09-24T17:45:04.000Z,102118
2018-09-24T17:46:49.000Z,102126
2018-09-24T18:33:20.000Z,102184
2018-09-24T20:56:25.000Z,102319
2018-09-24T22:29:16.000Z,102391
2018-09-24T22:30:22.000Z,102388
2018-09-24T22:31:22.000Z,102393
2018-09-24T22:32:22.000Z,102391
2018-09-24T22:34:22.000Z,102391
2018-09-24T22:36:22.000Z,102389
2018-09-24T22:38:07.000Z,102385
2018-09-24T22:39:22.000Z,102390
2018-09-24T22:41:22.000Z,102389
2018-09-24T22:43:22.000Z,102386
2018-09-24T22:45:22.000Z,102390
2018-09-24T22:46:22.000Z,102389
2018-09-24T22:48:07.000Z,102391
2018-09-24T22:49:22.000Z,102392
2018-09-24T22:51:22.000Z,102392
2018-09-24T22:52:22.000Z,102391
2018-09-24T22:54:22.000Z,102397
2018-09-24T22:56:22.000Z,102399
2018-09-24T22:58:07.000Z,102402
2018-09-24T22:59:22.000Z,102401
2018-09-24T23:00:22.000Z,102397
2018-09-24T23:01:22.000Z,102400
2018-09-24T23:03:07.000Z,102404
2018-09-24T23:04:22.000Z,102395
2018-09-24T23:05:22.000Z,102392
2018-09-24T23:07:22.000Z,102400
2018-09-24T23:09:22.000Z,102399
2018-09-24T23:10:22.000Z,102400
2018-09-24T23:12:22.000Z,102401
2018-09-24T23:14:22.000Z,102399
2018-09-24T23:16:22.000Z,102398
2018-09-24T23:18:22.000Z,102400
2018-09-24T23:19:22.000Z,102398
2018-09-24T23:21:22.000Z,102404
2018-09-24T23:23:22.000Z,102406
2018-09-24T23:25:22.000Z,102403
2018-09-24T23:27:22.000Z,102401
2018-09-24T23:29:22.000Z,102398
2018-09-24T23:30:22.000Z,102395
2018-09-24T23:32:22.000Z,102405
2018-09-24T23:34:23.000Z,102395
2018-09-24T23:35:23.000Z,102390
2018-09-24T23:37:23.000Z,102395
2018-09-24T23:39:23.000Z,102400
2018-09-24T23:40:23.000Z,102397
2018-09-24T23:42:23.000Z,102398
2018-09-24T23:43:23.000Z,102396
2018-09-24T23:44:23.000Z,102401
2018-09-24T23:46:23.000Z,102398
2018-09-24T23:48:23.000Z,102391
2018-09-24T23:50:23.000Z,102393
2018-09-24T23:52:23.000Z,102393
2018-09-24T23:54:08.000Z,102394
2018-09-24T23:55:23.000Z,102396
2018-09-24T23:57:08.000Z,102395
2018-09-24T23:58:23.000Z,102394
